sensor_id;sensor_type;location;lat;lon;timestamp;temperature;humidity
45207;DHT22;30950;53.086;21.576;2023-03-09T00:01:19;1.00;99.90
45207;DHT22;30950;53.086;21.576;2023-03-09T00:03:47;1.00;99.90
45207;DHT22;30950;53.086;21.576;2023-03-09T00:06:15;0.90;99.90
45207;DHT22;30950;53.086;21.576;2023-03-09T00:08:42;0.80;99.90
45207;DHT22;30950;53.086;21.576;2023-03-09T00:11:10;0.80;99.90
45207;DHT22;30950;53.086;21.576;2023-03-09T00:13:37;0.80;99.90
45207;DHT22;30950;53.086;21.576;2023-03-09T00:16:09;0.80;99.90
45207;DHT22;30950;53.086;21.576;2023-03-09T00:18:37;0.80;99.90
45207;DHT22;30950;53.086;21.576;2023-03-09T00:21:04;0.80;99.90
45207;DHT22;30950;53.086;21.576;2023-03-09T00:23:32;0.80;99.90
45207;DHT22;30950;53.086;21.576;2023-03-09T00:26:04;0.70;99.90
45207;DHT22;30950;53.086;21.576;2023-03-09T00:28:32;0.60;99.90
45207;DHT22;30950;53.086;21.576;2023-03-09T00:31:05;0.60;99.90
45207;DHT22;30950;53.086;21.576;2023-03-09T00:33:35;0.50;99.90
45207;DHT22;30950;53.086;21.576;2023-03-09T00:36:02;0.60;99.90
45207;DHT22;30950;53.086;21.576;2023-03-09T00:38:30;0.50;99.90
45207;DHT22;30950;53.086;21.576;2023-03-09T00:40:57;0.50;99.90
45207;DHT22;30950;53.086;21.576;2023-03-09T00:43:24;1.20;99.90
45207;DHT22;30950;53.086;21.576;2023-03-09T00:45:52;0.40;99.90
45207;DHT22;30950;53.086;21.576;2023-03-09T00:48:19;0.30;99.90
45207;DHT22;30950;53.086;21.576;2023-03-09T00:50:46;0.30;99.90
45207;DHT22;30950;53.086;21.576;2023-03-09T00:53:14;0.30;99.90
45207;DHT22;30950;53.086;21.576;2023-03-09T00:55:41;0.30;99.90
45207;DHT22;30950;53.086;21.576;2023-03-09T00:58:10;0.40;99.90
45207;DHT22;30950;53.086;21.576;2023-03-09T01:00:41;0.40;99.90
45207;DHT22;30950;53.086;21.576;2023-03-09T01:03:08;0.30;99.90
45207;DHT22;30950;53.086;21.576;2023-03-09T01:05:37;0.70;99.90
45207;DHT22;30950;53.086;21.576;2023-03-09T01:08:05;0.30;99.90
45207;DHT22;30950;53.086;21.576;2023-03-09T01:10:32;0.30;99.90
45207;DHT22;30950;53.086;21.576;2023-03-09T01:12:59;0.30;99.90
45207;DHT22;30950;53.086;21.576;2023-03-09T01:15:27;0.40;99.90
45207;DHT22;30950;53.086;21.576;2023-03-09T01:17:54;0.40;99.90
45207;DHT22;30950;53.086;21.576;2023-03-09T01:20:22;0.40;99.90
45207;DHT22;30950;53.086;21.576;2023-03-09T01:22:49;0.40;99.90
45207;DHT22;30950;53.086;21.576;2023-03-09T01:25:17;0.40;99.90
45207;DHT22;30950;53.086;21.576;2023-03-09T01:27:44;0.40;99.90
45207;DHT22;30950;53.086;21.576;2023-03-09T01:30:12;0.40;99.90
45207;DHT22;30950;53.086;21.576;2023-03-09T01:32:40;0.40;99.90
45207;DHT22;30950;53.086;21.576;2023-03-09T01:35:07;0.40;99.90
45207;DHT22;30950;53.086;21.576;2023-03-09T01:37:35;0.40;99.90
45207;DHT22;30950;53.086;21.576;2023-03-09T01:40:03;0.90;99.90
45207;DHT22;30950;53.086;21.576;2023-03-09T01:42:34;0.40;99.90
45207;DHT22;30950;53.086;21.576;2023-03-09T01:47:46;0.50;99.90
45207;DHT22;30950;53.086;21.576;2023-03-09T01:50:23;0.50;99.90
45207;DHT22;30950;53.086;21.576;2023-03-09T01:52:53;0.50;99.90
45207;DHT22;30950;53.086;21.576;2023-03-09T01:55:31;0.80;99.90
45207;DHT22;30950;53.086;21.576;2023-03-09T01:58:08;0.60;99.90
45207;DHT22;30950;53.086;21.576;2023-03-09T02:00:41;0.50;99.90
45207;DHT22;30950;53.086;21.576;2023-03-09T02:03:20;0.50;99.90
45207;DHT22;30950;53.086;21.576;2023-03-09T02:06:14;0.60;99.90
45207;DHT22;30950;53.086;21.576;2023-03-09T02:09:06;0.60;99.90
45207;DHT22;30950;53.086;21.576;2023-03-09T02:11:37;1.10;99.90
45207;DHT22;30950;53.086;21.576;2023-03-09T02:14:05;0.50;99.90
45207;DHT22;30950;53.086;21.576;2023-03-09T02:16:34;0.50;99.90
45207;DHT22;30950;53.086;21.576;2023-03-09T02:19:01;0.50;99.90
45207;DHT22;30950;53.086;21.576;2023-03-09T02:21:50;0.70;99.90
45207;DHT22;30950;53.086;21.576;2023-03-09T02:25:01;0.50;99.90
45207;DHT22;30950;53.086;21.576;2023-03-09T02:27:31;0.50;99.90
45207;DHT22;30950;53.086;21.576;2023-03-09T02:29:59;0.50;99.90
45207;DHT22;30950;53.086;21.576;2023-03-09T02:32:32;0.60;99.90
45207;DHT22;30950;53.086;21.576;2023-03-09T02:34:59;0.50;99.90
45207;DHT22;30950;53.086;21.576;2023-03-09T02:37:37;0.50;99.90
45207;DHT22;30950;53.086;21.576;2023-03-09T02:40:17;0.50;99.90
45207;DHT22;30950;53.086;21.576;2023-03-09T02:42:50;0.50;99.90
45207;DHT22;30950;53.086;21.576;2023-03-09T02:45:21;0.50;99.90
45207;DHT22;30950;53.086;21.576;2023-03-09T02:47:50;0.50;99.90
45207;DHT22;30950;53.086;21.576;2023-03-09T02:50:18;0.50;99.90
45207;DHT22;30950;53.086;21.576;2023-03-09T02:52:45;0.40;99.90
45207;DHT22;30950;53.086;21.576;2023-03-09T02:55:13;0.50;99.90
45207;DHT22;30950;53.086;21.576;2023-03-09T02:57:41;0.50;99.90
45207;DHT22;30950;53.086;21.576;2023-03-09T03:00:13;0.70;99.90
45207;DHT22;30950;53.086;21.576;2023-03-09T03:02:41;0.50;99.90
45207;DHT22;30950;53.086;21.576;2023-03-09T03:05:08;0.50;99.90
45207;DHT22;30950;53.086;21.576;2023-03-09T03:07:39;0.50;99.90
45207;DHT22;30950;53.086;21.576;2023-03-09T03:10:09;0.50;99.90
45207;DHT22;30950;53.086;21.576;2023-03-09T03:12:37;0.50;99.90
45207;DHT22;30950;53.086;21.576;2023-03-09T03:15:05;0.50;99.90
45207;DHT22;30950;53.086;21.576;2023-03-09T03:17:33;0.50;99.90
45207;DHT22;30950;53.086;21.576;2023-03-09T03:20:00;0.80;99.90
45207;DHT22;30950;53.086;21.576;2023-03-09T03:22:28;0.50;99.90
45207;DHT22;30950;53.086;21.576;2023-03-09T03:24:56;0.50;99.90
45207;DHT22;30950;53.086;21.576;2023-03-09T03:27:23;0.50;99.90
45207;DHT22;30950;53.086;21.576;2023-03-09T03:29:51;0.70;99.90
45207;DHT22;30950;53.086;21.576;2023-03-09T03:32:20;0.60;99.90
45207;DHT22;30950;53.086;21.576;2023-03-09T03:34:47;0.40;99.90
45207;DHT22;30950;53.086;21.576;2023-03-09T03:37:16;0.40;99.90
45207;DHT22;30950;53.086;21.576;2023-03-09T03:39:45;0.60;99.90
45207;DHT22;30950;53.086;21.576;2023-03-09T03:42:13;0.40;99.90
45207;DHT22;30950;53.086;21.576;2023-03-09T03:44:40;0.70;99.90
45207;DHT22;30950;53.086;21.576;2023-03-09T03:47:10;0.50;99.90
45207;DHT22;30950;53.086;21.576;2023-03-09T03:49:37;0.60;99.90
45207;DHT22;30950;53.086;21.576;2023-03-09T03:52:07;0.50;99.90
45207;DHT22;30950;53.086;21.576;2023-03-09T03:54:36;0.40;99.90
45207;DHT22;30950;53.086;21.576;2023-03-09T03:57:04;0.40;99.90
45207;DHT22;30950;53.086;21.576;2023-03-09T03:59:34;0.40;99.90
45207;DHT22;30950;53.086;21.576;2023-03-09T04:02:02;0.40;99.90
45207;DHT22;30950;53.086;21.576;2023-03-09T04:04:30;0.40;99.90
45207;DHT22;30950;53.086;21.576;2023-03-09T04:07:03;0.40;99.90
45207;DHT22;30950;53.086;21.576;2023-03-09T04:09:31;0.40;99.90
45207;DHT22;30950;53.086;21.576;2023-03-09T04:12:00;0.40;99.90
45207;DHT22;30950;53.086;21.576;2023-03-09T04:14:28;0.40;99.90
45207;DHT22;30950;53.086;21.576;2023-03-09T04:16:57;0.40;99.90
45207;DHT22;30950;53.086;21.576;2023-03-09T04:19:28;0.40;99.90
45207;DHT22;30950;53.086;21.576;2023-03-09T04:21:56;0.40;99.90
45207;DHT22;30950;53.086;21.576;2023-03-09T04:24:24;0.40;99.90
45207;DHT22;30950;53.086;21.576;2023-03-09T04:26:51;0.50;99.90
45207;DHT22;30950;53.086;21.576;2023-03-09T04:29:32;0.50;99.90
45207;DHT22;30950;53.086;21.576;2023-03-09T04:32:00;0.50;99.90
45207;DHT22;30950;53.086;21.576;2023-03-09T04:34:28;1.10;99.90
45207;DHT22;30950;53.086;21.576;2023-03-09T04:36:56;0.60;99.90
45207;DHT22;30950;53.086;21.576;2023-03-09T04:39:24;0.50;99.90
45207;DHT22;30950;53.086;21.576;2023-03-09T04:41:51;0.50;99.90
45207;DHT22;30950;53.086;21.576;2023-03-09T04:44:19;0.50;99.90
45207;DHT22;30950;53.086;21.576;2023-03-09T04:46:46;0.50;99.90
45207;DHT22;30950;53.086;21.576;2023-03-09T04:49:14;0.70;99.90
45207;DHT22;30950;53.086;21.576;2023-03-09T04:51:42;0.50;99.90
45207;DHT22;30950;53.086;21.576;2023-03-09T04:54:10;1.20;99.90
45207;DHT22;30950;53.086;21.576;2023-03-09T04:56:38;0.50;99.90
45207;DHT22;30950;53.086;21.576;2023-03-09T04:59:13;0.50;99.90
45207;DHT22;30950;53.086;21.576;2023-03-09T05:01:40;0.50;99.90
45207;DHT22;30950;53.086;21.576;2023-03-09T05:04:12;0.50;99.90
45207;DHT22;30950;53.086;21.576;2023-03-09T05:06:47;0.50;99.90
45207;DHT22;30950;53.086;21.576;2023-03-09T05:09:16;0.50;99.90
45207;DHT22;30950;53.086;21.576;2023-03-09T05:11:44;0.50;99.90
45207;DHT22;30950;53.086;21.576;2023-03-09T05:14:13;0.50;99.90
45207;DHT22;30950;53.086;21.576;2023-03-09T05:16:41;1.00;99.90
45207;DHT22;30950;53.086;21.576;2023-03-09T05:19:11;0.60;99.90
45207;DHT22;30950;53.086;21.576;2023-03-09T05:21:40;0.90;99.90
45207;DHT22;30950;53.086;21.576;2023-03-09T05:24:11;0.50;99.90
45207;DHT22;30950;53.086;21.576;2023-03-09T05:26:39;0.50;99.90
45207;DHT22;30950;53.086;21.576;2023-03-09T05:29:08;0.90;99.90
45207;DHT22;30950;53.086;21.576;2023-03-09T05:31:37;0.50;99.90
45207;DHT22;30950;53.086;21.576;2023-03-09T05:34:06;0.50;99.90
45207;DHT22;30950;53.086;21.576;2023-03-09T05:36:33;1.50;99.90
45207;DHT22;30950;53.086;21.576;2023-03-09T05:39:12;0.60;99.90
45207;DHT22;30950;53.086;21.576;2023-03-09T05:41:40;0.90;99.90
45207;DHT22;30950;53.086;21.576;2023-03-09T05:44:18;0.60;99.90
45207;DHT22;30950;53.086;21.576;2023-03-09T05:46:45;0.60;99.90
45207;DHT22;30950;53.086;21.576;2023-03-09T05:49:12;0.60;99.90
45207;DHT22;30950;53.086;21.576;2023-03-09T05:51:41;0.60;99.90
45207;DHT22;30950;53.086;21.576;2023-03-09T05:54:08;0.60;99.90
45207;DHT22;30950;53.086;21.576;2023-03-09T05:56:39;0.60;99.90
45207;DHT22;30950;53.086;21.576;2023-03-09T05:59:06;1.30;99.90
45207;DHT22;30950;53.086;21.576;2023-03-09T06:01:35;0.90;99.90
45207;DHT22;30950;53.086;21.576;2023-03-09T06:04:13;0.80;99.90
45207;DHT22;30950;53.086;21.576;2023-03-09T06:06:43;0.70;99.90
45207;DHT22;30950;53.086;21.576;2023-03-09T06:09:11;0.70;99.90
45207;DHT22;30950;53.086;21.576;2023-03-09T06:11:39;0.70;99.90
45207;DHT22;30950;53.086;21.576;2023-03-09T06:14:08;0.80;99.90
45207;DHT22;30950;53.086;21.576;2023-03-09T06:16:40;0.80;99.90
45207;DHT22;30950;53.086;21.576;2023-03-09T06:19:09;0.80;99.90
45207;DHT22;30950;53.086;21.576;2023-03-09T06:21:36;0.90;99.90
45207;DHT22;30950;53.086;21.576;2023-03-09T06:24:05;1.60;99.90
45207;DHT22;30950;53.086;21.576;2023-03-09T06:26:33;0.90;99.90
45207;DHT22;30950;53.086;21.576;2023-03-09T06:29:05;0.90;99.90
45207;DHT22;30950;53.086;21.576;2023-03-09T06:31:36;1.00;99.90
45207;DHT22;30950;53.086;21.576;2023-03-09T06:34:04;1.00;99.90
45207;DHT22;30950;53.086;21.576;2023-03-09T06:36:32;1.10;99.90
45207;DHT22;30950;53.086;21.576;2023-03-09T06:39:01;1.10;99.90
45207;DHT22;30950;53.086;21.576;2023-03-09T06:41:34;1.10;99.90
45207;DHT22;30950;53.086;21.576;2023-03-09T06:44:36;1.20;99.90
45207;DHT22;30950;53.086;21.576;2023-03-09T06:47:04;1.20;99.90
45207;DHT22;30950;53.086;21.576;2023-03-09T06:49:32;1.30;99.90
45207;DHT22;30950;53.086;21.576;2023-03-09T06:52:06;1.30;99.90
45207;DHT22;30950;53.086;21.576;2023-03-09T06:54:34;1.30;99.90
45207;DHT22;30950;53.086;21.576;2023-03-09T06:57:10;1.40;99.90
45207;DHT22;30950;53.086;21.576;2023-03-09T06:59:39;1.40;99.90
45207;DHT22;30950;53.086;21.576;2023-03-09T07:02:13;1.50;99.90
45207;DHT22;30950;53.086;21.576;2023-03-09T07:04:41;1.50;99.90
45207;DHT22;30950;53.086;21.576;2023-03-09T07:07:08;1.60;99.90
45207;DHT22;30950;53.086;21.576;2023-03-09T07:09:36;1.60;99.90
45207;DHT22;30950;53.086;21.576;2023-03-09T07:12:04;1.80;99.90
45207;DHT22;30950;53.086;21.576;2023-03-09T07:14:31;1.70;99.90
45207;DHT22;30950;53.086;21.576;2023-03-09T07:16:59;1.80;99.90
45207;DHT22;30950;53.086;21.576;2023-03-09T07:19:26;1.80;99.90
45207;DHT22;30950;53.086;21.576;2023-03-09T07:21:53;1.80;99.90
45207;DHT22;30950;53.086;21.576;2023-03-09T07:24:21;1.90;99.90
45207;DHT22;30950;53.086;21.576;2023-03-09T07:26:49;2.00;99.90
45207;DHT22;30950;53.086;21.576;2023-03-09T07:29:16;2.10;99.90
45207;DHT22;30950;53.086;21.576;2023-03-09T07:31:44;2.10;99.90
45207;DHT22;30950;53.086;21.576;2023-03-09T07:34:11;2.10;99.90
45207;DHT22;30950;53.086;21.576;2023-03-09T07:36:39;2.20;99.90
45207;DHT22;30950;53.086;21.576;2023-03-09T07:39:06;2.20;99.90
45207;DHT22;30950;53.086;21.576;2023-03-09T07:41:34;2.30;99.90
45207;DHT22;30950;53.086;21.576;2023-03-09T07:44:01;2.30;99.90
45207;DHT22;30950;53.086;21.576;2023-03-09T07:46:30;2.30;99.90
45207;DHT22;30950;53.086;21.576;2023-03-09T07:48:57;2.40;99.90
45207;DHT22;30950;53.086;21.576;2023-03-09T07:51:24;2.40;99.90
45207;DHT22;30950;53.086;21.576;2023-03-09T07:53:52;2.40;99.90
45207;DHT22;30950;53.086;21.576;2023-03-09T07:56:19;2.40;99.90
45207;DHT22;30950;53.086;21.576;2023-03-09T07:58:46;2.40;99.90
45207;DHT22;30950;53.086;21.576;2023-03-09T08:01:16;2.40;99.90
45207;DHT22;30950;53.086;21.576;2023-03-09T08:03:44;2.50;99.90
45207;DHT22;30950;53.086;21.576;2023-03-09T08:06:12;2.50;99.90
45207;DHT22;30950;53.086;21.576;2023-03-09T08:08:40;2.50;99.90
45207;DHT22;30950;53.086;21.576;2023-03-09T08:11:08;2.50;99.90
45207;DHT22;30950;53.086;21.576;2023-03-09T08:13:35;2.50;99.90
45207;DHT22;30950;53.086;21.576;2023-03-09T08:16:06;2.60;99.90
45207;DHT22;30950;53.086;21.576;2023-03-09T08:18:34;2.70;99.90
45207;DHT22;30950;53.086;21.576;2023-03-09T08:21:10;2.70;99.90
45207;DHT22;30950;53.086;21.576;2023-03-09T08:23:39;2.80;99.90
45207;DHT22;30950;53.086;21.576;2023-03-09T08:26:13;2.80;99.90
45207;DHT22;30950;53.086;21.576;2023-03-09T08:28:41;2.90;99.90
45207;DHT22;30950;53.086;21.576;2023-03-09T08:31:11;2.90;99.90
45207;DHT22;30950;53.086;21.576;2023-03-09T08:33:39;2.90;99.90
45207;DHT22;30950;53.086;21.576;2023-03-09T08:36:16;2.90;99.90
45207;DHT22;30950;53.086;21.576;2023-03-09T08:38:45;3.00;99.90
45207;DHT22;30950;53.086;21.576;2023-03-09T08:41:15;3.00;99.90
45207;DHT22;30950;53.086;21.576;2023-03-09T08:43:42;3.10;99.90
45207;DHT22;30950;53.086;21.576;2023-03-09T08:46:10;3.10;99.90
45207;DHT22;30950;53.086;21.576;2023-03-09T08:48:37;3.10;99.90
45207;DHT22;30950;53.086;21.576;2023-03-09T08:51:07;3.10;99.90
45207;DHT22;30950;53.086;21.576;2023-03-09T08:53:35;3.10;99.90
45207;DHT22;30950;53.086;21.576;2023-03-09T08:56:08;3.10;99.90
45207;DHT22;30950;53.086;21.576;2023-03-09T08:58:37;3.00;99.70
45207;DHT22;30950;53.086;21.576;2023-03-09T09:01:05;3.00;99.20
45207;DHT22;30950;53.086;21.576;2023-03-09T09:03:36;3.00;99.90
45207;DHT22;30950;53.086;21.576;2023-03-09T09:06:09;3.00;99.60
45207;DHT22;30950;53.086;21.576;2023-03-09T09:08:38;3.10;99.90
45207;DHT22;30950;53.086;21.576;2023-03-09T09:11:14;3.20;99.90
45207;DHT22;30950;53.086;21.576;2023-03-09T09:13:41;3.30;99.90
45207;DHT22;30950;53.086;21.576;2023-03-09T09:16:10;3.40;99.90
45207;DHT22;30950;53.086;21.576;2023-03-09T09:18:38;3.40;99.90
45207;DHT22;30950;53.086;21.576;2023-03-09T09:21:13;3.50;99.90
45207;DHT22;30950;53.086;21.576;2023-03-09T09:23:42;3.60;99.20
45207;DHT22;30950;53.086;21.576;2023-03-09T09:26:10;3.60;99.80
45207;DHT22;30950;53.086;21.576;2023-03-09T09:28:39;3.70;99.90
45207;DHT22;30950;53.086;21.576;2023-03-09T09:31:09;3.80;99.90
45207;DHT22;30950;53.086;21.576;2023-03-09T09:33:40;3.90;95.60
45207;DHT22;30950;53.086;21.576;2023-03-09T09:36:12;3.90;93.40
45207;DHT22;30950;53.086;21.576;2023-03-09T09:38:40;3.90;91.90
45207;DHT22;30950;53.086;21.576;2023-03-09T09:43:39;3.80;90.40
45207;DHT22;30950;53.086;21.576;2023-03-09T09:46:14;3.70;87.90
45207;DHT22;30950;53.086;21.576;2023-03-09T09:48:43;3.70;88.30
45207;DHT22;30950;53.086;21.576;2023-03-09T09:54:12;3.80;90.00
45207;DHT22;30950;53.086;21.576;2023-03-09T09:56:53;3.70;87.90
45207;DHT22;30950;53.086;21.576;2023-03-09T09:59:43;3.80;86.00
45207;DHT22;30950;53.086;21.576;2023-03-09T10:02:28;3.80;85.20
45207;DHT22;30950;53.086;21.576;2023-03-09T10:05:30;3.80;84.70
45207;DHT22;30950;53.086;21.576;2023-03-09T10:10:50;3.80;87.30
45207;DHT22;30950;53.086;21.576;2023-03-09T10:13:48;3.90;88.10
45207;DHT22;30950;53.086;21.576;2023-03-09T10:16:30;4.00;87.20
45207;DHT22;30950;53.086;21.576;2023-03-09T10:19:05;4.10;86.80
45207;DHT22;30950;53.086;21.576;2023-03-09T10:21:42;4.10;85.30
45207;DHT22;30950;53.086;21.576;2023-03-09T10:24:54;4.20;78.70
45207;DHT22;30950;53.086;21.576;2023-03-09T10:27:15;4.20;77.00
45207;DHT22;30950;53.086;21.576;2023-03-09T10:32:52;4.20;78.30
45207;DHT22;30950;53.086;21.576;2023-03-09T10:38:04;4.30;77.60
45207;DHT22;30950;53.086;21.576;2023-03-09T10:40:41;4.40;79.70
45207;DHT22;30950;53.086;21.576;2023-03-09T10:45:50;4.50;71.00
45207;DHT22;30950;53.086;21.576;2023-03-09T10:48:23;4.50;69.70
45207;DHT22;30950;53.086;21.576;2023-03-09T10:51:02;4.50;68.00
45207;DHT22;30950;53.086;21.576;2023-03-09T10:53:41;4.60;67.00
45207;DHT22;30950;53.086;21.576;2023-03-09T10:56:13;4.70;65.30
45207;DHT22;30950;53.086;21.576;2023-03-09T10:58:41;4.70;65.50
45207;DHT22;30950;53.086;21.576;2023-03-09T11:03:41;4.90;62.70
45207;DHT22;30950;53.086;21.576;2023-03-09T11:06:19;5.00;64.10
45207;DHT22;30950;53.086;21.576;2023-03-09T11:11:44;5.20;62.10
45207;DHT22;30950;53.086;21.576;2023-03-09T11:14:25;5.30;63.00
45207;DHT22;30950;53.086;21.576;2023-03-09T11:16:56;5.40;60.50
45207;DHT22;30950;53.086;21.576;2023-03-09T11:19:25;5.40;61.30
45207;DHT22;30950;53.086;21.576;2023-03-09T11:22:05;5.50;59.20
45207;DHT22;30950;53.086;21.576;2023-03-09T11:24:39;5.50;59.60
45207;DHT22;30950;53.086;21.576;2023-03-09T11:27:27;5.50;60.50
45207;DHT22;30950;53.086;21.576;2023-03-09T11:30:05;5.50;59.10
45207;DHT22;30950;53.086;21.576;2023-03-09T11:32:37;5.50;59.40
45207;DHT22;30950;53.086;21.576;2023-03-09T11:35:04;5.60;58.70
45207;DHT22;30950;53.086;21.576;2023-03-09T11:37:40;5.60;60.50
45207;DHT22;30950;53.086;21.576;2023-03-09T11:40:16;5.70;59.00
45207;DHT22;30950;53.086;21.576;2023-03-09T11:45:36;5.50;55.70
45207;DHT22;30950;53.086;21.576;2023-03-09T11:56:33;5.40;58.40
45207;DHT22;30950;53.086;21.576;2023-03-09T11:59:05;5.40;57.10
45207;DHT22;30950;53.086;21.576;2023-03-09T12:04:06;5.40;56.90
45207;DHT22;30950;53.086;21.576;2023-03-09T12:06:56;5.40;56.50
45207;DHT22;30950;53.086;21.576;2023-03-09T12:09:29;5.40;55.90
45207;DHT22;30950;53.086;21.576;2023-03-09T12:14:45;5.50;56.30
45207;DHT22;30950;53.086;21.576;2023-03-09T12:17:21;5.50;55.70
45207;DHT22;30950;53.086;21.576;2023-03-09T12:19:52;5.50;54.60
45207;DHT22;30950;53.086;21.576;2023-03-09T12:22:33;5.50;54.40
45207;DHT22;30950;53.086;21.576;2023-03-09T12:25:07;5.50;53.80
45207;DHT22;30950;53.086;21.576;2023-03-09T12:27:49;5.40;54.80
45207;DHT22;30950;53.086;21.576;2023-03-09T12:30:29;5.40;54.50
45207;DHT22;30950;53.086;21.576;2023-03-09T12:32:59;5.40;53.80
45207;DHT22;30950;53.086;21.576;2023-03-09T12:40:35;5.10;54.30
45207;DHT22;30950;53.086;21.576;2023-03-09T12:45:47;5.00;53.60
45207;DHT22;30950;53.086;21.576;2023-03-09T12:51:19;4.90;53.20
45207;DHT22;30950;53.086;21.576;2023-03-09T12:54:01;4.80;53.00
45207;DHT22;30950;53.086;21.576;2023-03-09T12:56:31;4.80;53.60
45207;DHT22;30950;53.086;21.576;2023-03-09T12:59:07;4.70;53.40
45207;DHT22;30950;53.086;21.576;2023-03-09T13:01:35;4.70;53.20
45207;DHT22;30950;53.086;21.576;2023-03-09T13:11:42;4.70;54.80
45207;DHT22;30950;53.086;21.576;2023-03-09T13:14:16;4.70;54.70
45207;DHT22;30950;53.086;21.576;2023-03-09T13:22:43;4.80;53.70
45207;DHT22;30950;53.086;21.576;2023-03-09T13:25:27;4.70;53.70
45207;DHT22;30950;53.086;21.576;2023-03-09T13:28:10;4.60;53.60
45207;DHT22;30950;53.086;21.576;2023-03-09T13:30:42;4.50;51.40
45207;DHT22;30950;53.086;21.576;2023-03-09T13:33:19;4.50;52.50
45207;DHT22;30950;53.086;21.576;2023-03-09T13:39:06;4.30;52.60
45207;DHT22;30950;53.086;21.576;2023-03-09T13:41:37;4.30;53.80
45207;DHT22;30950;53.086;21.576;2023-03-09T13:44:10;4.40;53.70
45207;DHT22;30950;53.086;21.576;2023-03-09T13:46:44;4.30;53.80
45207;DHT22;30950;53.086;21.576;2023-03-09T13:49:29;4.30;53.00
45207;DHT22;30950;53.086;21.576;2023-03-09T13:52:11;4.30;53.00
45207;DHT22;30950;53.086;21.576;2023-03-09T13:57:31;4.20;53.80
45207;DHT22;30950;53.086;21.576;2023-03-09T14:02:36;4.20;53.80
45207;DHT22;30950;53.086;21.576;2023-03-09T14:05:25;4.20;53.90
45207;DHT22;30950;53.086;21.576;2023-03-09T14:08:18;4.20;54.50
45207;DHT22;30950;53.086;21.576;2023-03-09T14:10:46;4.00;54.50
45207;DHT22;30950;53.086;21.576;2023-03-09T14:13:17;4.20;54.50
45207;DHT22;30950;53.086;21.576;2023-03-09T14:16:00;4.10;54.50
45207;DHT22;30950;53.086;21.576;2023-03-09T14:18:48;4.10;54.20
45207;DHT22;30950;53.086;21.576;2023-03-09T14:23:48;3.90;53.70
45207;DHT22;30950;53.086;21.576;2023-03-09T14:26:29;3.90;53.40
45207;DHT22;30950;53.086;21.576;2023-03-09T14:31:35;3.80;54.80
45207;DHT22;30950;53.086;21.576;2023-03-09T14:36:39;3.80;55.20
45207;DHT22;30950;53.086;21.576;2023-03-09T14:45:06;3.80;55.90
45207;DHT22;30950;53.086;21.576;2023-03-09T14:47:37;3.70;55.60
45207;DHT22;30950;53.086;21.576;2023-03-09T14:50:05;3.70;56.20
45207;DHT22;30950;53.086;21.576;2023-03-09T14:52:35;3.70;56.10
45207;DHT22;30950;53.086;21.576;2023-03-09T14:55:02;3.70;56.40
45207;DHT22;30950;53.086;21.576;2023-03-09T14:57:30;3.60;56.80
45207;DHT22;30950;53.086;21.576;2023-03-09T14:59:57;3.60;57.10
45207;DHT22;30950;53.086;21.576;2023-03-09T15:02:25;3.60;57.00
45207;DHT22;30950;53.086;21.576;2023-03-09T15:04:52;3.60;56.60
45207;DHT22;30950;53.086;21.576;2023-03-09T15:07:20;3.50;56.90
45207;DHT22;30950;53.086;21.576;2023-03-09T15:09:47;3.50;57.00
45207;DHT22;30950;53.086;21.576;2023-03-09T15:12:18;3.60;57.30
45207;DHT22;30950;53.086;21.576;2023-03-09T15:14:47;3.50;57.50
45207;DHT22;30950;53.086;21.576;2023-03-09T15:17:18;3.50;57.90
45207;DHT22;30950;53.086;21.576;2023-03-09T15:19:45;3.50;58.30
45207;DHT22;30950;53.086;21.576;2023-03-09T15:22:15;3.50;58.40
45207;DHT22;30950;53.086;21.576;2023-03-09T15:24:43;3.50;58.60
45207;DHT22;30950;53.086;21.576;2023-03-09T15:27:11;3.50;58.90
45207;DHT22;30950;53.086;21.576;2023-03-09T15:29:39;3.40;58.40
45207;DHT22;30950;53.086;21.576;2023-03-09T15:32:07;3.40;59.10
45207;DHT22;30950;53.086;21.576;2023-03-09T15:34:40;3.40;59.40
45207;DHT22;30950;53.086;21.576;2023-03-09T15:37:08;3.30;59.60
45207;DHT22;30950;53.086;21.576;2023-03-09T15:39:36;3.30;60.10
45207;DHT22;30950;53.086;21.576;2023-03-09T15:42:04;3.30;60.00
45207;DHT22;30950;53.086;21.576;2023-03-09T15:44:33;3.30;59.70
45207;DHT22;30950;53.086;21.576;2023-03-09T15:47:01;3.30;59.90
45207;DHT22;30950;53.086;21.576;2023-03-09T15:49:29;3.30;60.30
45207;DHT22;30950;53.086;21.576;2023-03-09T15:51:56;3.20;60.40
45207;DHT22;30950;53.086;21.576;2023-03-09T15:54:23;3.20;60.40
45207;DHT22;30950;53.086;21.576;2023-03-09T15:56:51;3.20;60.70
45207;DHT22;30950;53.086;21.576;2023-03-09T15:59:18;3.20;60.90
45207;DHT22;30950;53.086;21.576;2023-03-09T16:01:45;3.10;61.30
45207;DHT22;30950;53.086;21.576;2023-03-09T16:04:14;3.10;61.50
45207;DHT22;30950;53.086;21.576;2023-03-09T16:06:42;3.20;61.70
45207;DHT22;30950;53.086;21.576;2023-03-09T16:09:10;3.10;62.20
45207;DHT22;30950;53.086;21.576;2023-03-09T16:11:37;3.10;62.30
45207;DHT22;30950;53.086;21.576;2023-03-09T16:14:05;3.10;62.40
45207;DHT22;30950;53.086;21.576;2023-03-09T16:16:33;3.00;62.70
45207;DHT22;30950;53.086;21.576;2023-03-09T16:19:00;3.00;62.90
45207;DHT22;30950;53.086;21.576;2023-03-09T16:21:28;3.00;63.10
45207;DHT22;30950;53.086;21.576;2023-03-09T16:23:55;3.00;63.70
45207;DHT22;30950;53.086;21.576;2023-03-09T16:26:23;3.00;63.80
45207;DHT22;30950;53.086;21.576;2023-03-09T16:28:50;3.00;63.90
45207;DHT22;30950;53.086;21.576;2023-03-09T16:31:23;2.90;63.80
45207;DHT22;30950;53.086;21.576;2023-03-09T16:33:52;3.00;63.80
45207;DHT22;30950;53.086;21.576;2023-03-09T16:36:21;2.90;63.60
45207;DHT22;30950;53.086;21.576;2023-03-09T16:38:48;2.90;63.80
45207;DHT22;30950;53.086;21.576;2023-03-09T16:41:19;2.90;63.90
45207;DHT22;30950;53.086;21.576;2023-03-09T16:43:46;2.90;64.10
45207;DHT22;30950;53.086;21.576;2023-03-09T16:46:19;2.90;64.30
45207;DHT22;30950;53.086;21.576;2023-03-09T16:48:47;2.90;64.90
45207;DHT22;30950;53.086;21.576;2023-03-09T16:51:17;2.90;65.60
45207;DHT22;30950;53.086;21.576;2023-03-09T16:53:45;2.90;65.20
45207;DHT22;30950;53.086;21.576;2023-03-09T16:56:12;2.90;65.20
45207;DHT22;30950;53.086;21.576;2023-03-09T16:58:40;2.90;65.60
45207;DHT22;30950;53.086;21.576;2023-03-09T17:01:15;2.90;65.90
45207;DHT22;30950;53.086;21.576;2023-03-09T17:03:43;2.90;66.00
45207;DHT22;30950;53.086;21.576;2023-03-09T17:06:13;2.90;66.10
45207;DHT22;30950;53.086;21.576;2023-03-09T17:08:41;2.90;66.80
45207;DHT22;30950;53.086;21.576;2023-03-09T17:11:14;2.90;67.20
45207;DHT22;30950;53.086;21.576;2023-03-09T17:13:45;2.80;67.10
45207;DHT22;30950;53.086;21.576;2023-03-09T17:16:14;2.90;67.40
45207;DHT22;30950;53.086;21.576;2023-03-09T17:18:42;2.80;67.10
45207;DHT22;30950;53.086;21.576;2023-03-09T17:21:10;2.80;67.70